sensor_id;sensor_type;location;lat;lon;timestamp;temperature;humidity
37342;DHT22;58643;49.052;8.518;2022-09-24T05:30:41;10.20;99.90
37342;DHT22;58643;49.052;8.518;2022-09-24T05:33:06;9.90;99.90
37342;DHT22;58643;49.052;8.518;2022-09-24T05:35:32;9.80;99.90
37342;DHT22;58643;49.052;8.518;2022-09-24T05:37:57;10.00;99.90
37342;DHT22;58643;49.052;8.518;2022-09-24T05:40:23;10.10;99.90
37342;DHT22;58643;49.052;8.518;2022-09-24T05:43:07;10.10;99.90
37342;DHT22;58643;49.052;8.518;2022-09-24T05:45:32;10.30;99.90
37342;DHT22;58643;49.052;8.518;2022-09-24T05:47:58;10.40;99.90
37342;DHT22;58643;49.052;8.518;2022-09-24T05:50:27;10.40;99.90
37342;DHT22;58643;49.052;8.518;2022-09-24T05:52:52;12.20;99.90
37342;DHT22;58643;49.052;8.518;2022-09-24T05:55:18;12.40;99.90
37342;DHT22;58643;49.052;8.518;2022-09-24T05:57:43;11.00;99.90
37342;DHT22;58643;49.052;8.518;2022-09-24T06:00:09;13.90;99.90
37342;DHT22;58643;49.052;8.518;2022-09-24T06:02:35;11.00;99.90
37342;DHT22;58643;49.052;8.518;2022-09-24T06:05:01;11.00;99.90
37342;DHT22;58643;49.052;8.518;2022-09-24T06:07:26;11.00;99.90
37342;DHT22;58643;49.052;8.518;2022-09-24T06:09:52;11.10;99.90
37342;DHT22;58643;49.052;8.518;2022-09-24T06:12:17;11.20;99.90
37342;DHT22;58643;49.052;8.518;2022-09-24T06:14:43;11.40;99.90
37342;DHT22;58643;49.052;8.518;2022-09-24T06:17:09;11.40;99.90
37342;DHT22;58643;49.052;8.518;2022-09-24T06:19:35;11.60;99.90
37342;DHT22;58643;49.052;8.518;2022-09-24T06:22:01;11.70;99.90
37342;DHT22;58643;49.052;8.518;2022-09-24T06:24:26;13.40;99.90
37342;DHT22;58643;49.052;8.518;2022-09-24T06:26:52;11.80;99.90
37342;DHT22;58643;49.052;8.518;2022-09-24T06:29:17;12.00;99.90
37342;DHT22;58643;49.052;8.518;2022-09-24T06:31:43;13.90;99.90
37342;DHT22;58643;49.052;8.518;2022-09-24T06:34:10;12.50;99.90
37342;DHT22;58643;49.052;8.518;2022-09-24T06:36:35;12.30;99.90
37342;DHT22;58643;49.052;8.518;2022-09-24T06:39:01;9.90;99.90
37342;DHT22;58643;49.052;8.518;2022-09-24T06:41:27;12.80;99.90
37342;DHT22;58643;49.052;8.518;2022-09-24T06:43:53;14.50;99.90
37342;DHT22;58643;49.052;8.518;2022-09-24T06:46:19;15.30;99.90
37342;DHT22;58643;49.052;8.518;2022-09-24T06:48:48;13.00;99.90
37342;DHT22;58643;49.052;8.518;2022-09-24T06:51:13;14.50;99.90
37342;DHT22;58643;49.052;8.518;2022-09-24T06:53:39;13.80;99.90
37342;DHT22;58643;49.052;8.518;2022-09-24T06:56:05;15.20;99.90
37342;DHT22;58643;49.052;8.518;2022-09-24T06:58:31;13.30;99.90
37342;DHT22;58643;49.052;8.518;2022-09-24T07:01:00;15.00;99.90
37342;DHT22;58643;49.052;8.518;2022-09-24T07:03:32;13.30;99.90
37342;DHT22;58643;49.052;8.518;2022-09-24T07:06:02;13.40;99.90
37342;DHT22;58643;49.052;8.518;2022-09-24T07:08:28;13.50;99.90
37342;DHT22;58643;49.052;8.518;2022-09-24T07:10:54;13.80;99.90
37342;DHT22;58643;49.052;8.518;2022-09-24T07:13:20;15.80;99.90
37342;DHT22;58643;49.052;8.518;2022-09-24T07:15:47;13.80;99.90
37342;DHT22;58643;49.052;8.518;2022-09-24T07:18:13;13.90;99.90
37342;DHT22;58643;49.052;8.518;2022-09-24T07:20:39;16.60;99.90
37342;DHT22;58643;49.052;8.518;2022-09-24T07:23:06;14.40;99.90
37342;DHT22;58643;49.052;8.518;2022-09-24T07:25:32;14.30;99.90
37342;DHT22;58643;49.052;8.518;2022-09-24T07:28:09;15.50;99.90
37342;DHT22;58643;49.052;8.518;2022-09-24T07:30:35;14.40;99.90
37342;DHT22;58643;49.052;8.518;2022-09-24T07:33:01;14.50;99.90
37342;DHT22;58643;49.052;8.518;2022-09-24T07:35:27;14.70;99.90
37342;DHT22;58643;49.052;8.518;2022-09-24T07:37:58;16.40;99.90
37342;DHT22;58643;49.052;8.518;2022-09-24T07:40:24;15.30;99.90
37342;DHT22;58643;49.052;8.518;2022-09-24T07:42:51;15.20;99.90
37342;DHT22;58643;49.052;8.518;2022-09-24T07:45:16;16.60;99.90
37342;DHT22;58643;49.052;8.518;2022-09-24T07:47:42;18.00;99.90
37342;DHT22;58643;49.052;8.518;2022-09-24T07:50:08;15.60;99.90
37342;DHT22;58643;49.052;8.518;2022-09-24T07:52:34;16.10;99.90
37342;DHT22;58643;49.052;8.518;2022-09-24T07:55:00;15.70;99.90
37342;DHT22;58643;49.052;8.518;2022-09-24T07:57:25;15.60;99.90
37342;DHT22;58643;49.052;8.518;2022-09-24T07:59:52;15.80;99.90
37342;DHT22;58643;49.052;8.518;2022-09-24T08:02:18;15.50;99.90
37342;DHT22;58643;49.052;8.518;2022-09-24T08:04:44;15.40;99.90
37342;DHT22;58643;49.052;8.518;2022-09-24T08:07:11;15.60;99.90
37342;DHT22;58643;49.052;8.518;2022-09-24T08:09:37;15.60;99.90
37342;DHT22;58643;49.052;8.518;2022-09-24T08:12:03;15.30;99.90
37342;DHT22;58643;49.052;8.518;2022-09-24T08:14:29;15.40;99.90
37342;DHT22;58643;49.052;8.518;2022-09-24T08:16:54;15.70;99.90
37342;DHT22;58643;49.052;8.518;2022-09-24T08:19:20;15.20;99.90
37342;DHT22;58643;49.052;8.518;2022-09-24T08:21:46;15.70;99.90
37342;DHT22;58643;49.052;8.518;2022-09-24T08:24:13;16.90;99.90
37342;DHT22;58643;49.052;8.518;2022-09-24T08:26:40;15.50;99.90
37342;DHT22;58643;49.052;8.518;2022-09-24T08:29:05;15.60;99.90
37342;DHT22;58643;49.052;8.518;2022-09-24T08:31:31;16.90;99.90
37342;DHT22;58643;49.052;8.518;2022-09-24T08:33:59;17.70;99.90
37342;DHT22;58643;49.052;8.518;2022-09-24T08:36:25;17.90;99.90
37342;DHT22;58643;49.052;8.518;2022-09-24T08:38:53;15.90;99.90
37342;DHT22;58643;49.052;8.518;2022-09-24T08:44:28;16.30;99.90
37342;DHT22;58643;49.052;8.518;2022-09-24T08:47:27;18.60;99.90
37342;DHT22;58643;49.052;8.518;2022-09-24T08:50:14;17.00;99.90
37342;DHT22;58643;49.052;8.518;2022-09-24T08:55:35;19.40;99.90
37342;DHT22;58643;49.052;8.518;2022-09-24T08:58:39;17.10;99.90
37342;DHT22;58643;49.052;8.518;2022-09-24T09:09:20;16.80;99.90
37342;DHT22;58643;49.052;8.518;2022-09-24T09:11:56;17.00;99.90
37342;DHT22;58643;49.052;8.518;2022-09-24T09:20:32;16.40;99.90
37342;DHT22;58643;49.052;8.518;2022-09-24T09:23:50;16.30;99.90
37342;DHT22;58643;49.052;8.518;2022-09-24T09:25:58;16.40;99.90
37342;DHT22;58643;49.052;8.518;2022-09-24T09:28:27;18.20;99.90
37342;DHT22;58643;49.052;8.518;2022-09-24T09:39:46;17.00;99.90
37342;DHT22;58643;49.052;8.518;2022-09-24T09:44:47;17.70;99.90
37342;DHT22;58643;49.052;8.518;2022-09-24T09:47:21;18.00;99.90
37342;DHT22;58643;49.052;8.518;2022-09-24T09:49:51;18.10;99.90
37342;DHT22;58643;49.052;8.518;2022-09-24T09:52:20;18.50;99.90
37342;DHT22;58643;49.052;8.518;2022-09-24T09:54:46;18.80;99.90
37342;DHT22;58643;49.052;8.518;2022-09-24T09:57:21;18.90;99.90
37342;DHT22;58643;49.052;8.518;2022-09-24T09:59:49;18.50;99.90
37342;DHT22;58643;49.052;8.518;2022-09-24T10:02:35;18.40;99.90
37342;DHT22;58643;49.052;8.518;2022-09-24T10:05:05;18.60;99.90
37342;DHT22;58643;49.052;8.518;2022-09-24T10:07:43;18.20;99.90
37342;DHT22;58643;49.052;8.518;2022-09-24T10:10:21;18.10;99.90
37342;DHT22;58643;49.052;8.518;2022-09-24T10:13:10;18.70;99.90
37342;DHT22;58643;49.052;8.518;2022-09-24T10:16:00;19.30;99.90
37342;DHT22;58643;49.052;8.518;2022-09-24T10:18:35;17.20;99.90
37342;DHT22;58643;49.052;8.518;2022-09-24T10:21:08;17.30;99.90
37342;DHT22;58643;49.052;8.518;2022-09-24T10:23:44;17.50;99.90
37342;DHT22;58643;49.052;8.518;2022-09-24T10:26:13;19.30;99.90
37342;DHT22;58643;49.052;8.518;2022-09-24T10:28:44;18.00;99.90
37342;DHT22;58643;49.052;8.518;2022-09-24T10:31:30;17.50;99.90
37342;DHT22;58643;49.052;8.518;2022-09-24T10:33:58;17.80;99.90
37342;DHT22;58643;49.052;8.518;2022-09-24T10:36:27;17.90;99.90
37342;DHT22;58643;49.052;8.518;2022-09-24T10:41:32;17.70;99.90
37342;DHT22;58643;49.052;8.518;2022-09-24T10:44:03;17.70;99.90
37342;DHT22;58643;49.052;8.518;2022-09-24T10:46:58;17.50;99.90
37342;DHT22;58643;49.052;8.518;2022-09-24T10:55:14;17.80;99.90
37342;DHT22;58643;49.052;8.518;2022-09-24T10:57:51;17.40;99.90
37342;DHT22;58643;49.052;8.518;2022-09-24T11:00:21;17.20;99.90
37342;DHT22;58643;49.052;8.518;2022-09-24T11:03:07;18.80;99.90
37342;DHT22;58643;49.052;8.518;2022-09-24T11:05:53;17.30;99.90
37342;DHT22;58643;49.052;8.518;2022-09-24T11:11:36;17.60;99.90
37342;DHT22;58643;49.052;8.518;2022-09-24T11:14:20;18.60;99.90
37342;DHT22;58643;49.052;8.518;2022-09-24T11:17:16;18.50;99.90
37342;DHT22;58643;49.052;8.518;2022-09-24T11:19:52;18.50;99.90
37342;DHT22;58643;49.052;8.518;2022-09-24T11:22:38;19.00;99.90
